Saturday, November 18, 2017, 11:57 AM GMT
Back to Local

CWPK, Parent, Que.

Location: , , Canada Lat: 47.917
Local Time: 11:57 AM GMT (11:57 GMT) Lon: -74.617
Time Zone: GMT Elev: 1450 ft

Show me the last for .
Show Decoded

2017-11-18 10:00 METAR CWPK 181000Z AUTO 14001KT M11/M12 RMK AO1 SOG 08 5017 SLP134 T11091124 =
2017-11-18 09:00 METAR CWPK 180900Z AUTO 10003KT M12/M13 RMK AO1 SOG 08 8024 SLP131 T11171132 =
2017-11-18 08:00 METAR CWPK 180800Z AUTO 09001KT M13/M14 RMK AO1 SOG 08 8021 SLP142 T11281143 =
2017-11-18 07:00 METAR CWPK 180700Z AUTO 00000KT M14/M16 RMK AO1 SOG 08 6019 SLP153 T11351162 =
2017-11-18 06:00 METAR CWPK 180600Z AUTO 00000KT M15/M17 RMK AO1 SOG 08 8013 SLP158 T11511168 =
2017-11-18 05:00 METAR CWPK 180500Z AUTO 00000KT M16/M18 RMK AO1 SOG 08 7013 SLP166 T11591177 =
2017-11-18 04:00 METAR CWPK 180400Z AUTO 00000KT M15/M17 RMK AO1 SOG 08 5015 SLP173 T11511167 =
2017-11-18 03:00 METAR CWPK 180300Z AUTO 00000KT M16/M18 RMK AO1 SOG 08 8015 SLP173 T11581176 =
2017-11-18 02:00 METAR CWPK 180200Z AUTO 00000KT M15/M16 RMK AO1 SOG 08 8014 SLP180 T11471163 =
2017-11-18 01:00 METAR CWPK 180100Z AUTO 00000KT M14/M16 RMK AO1 SOG 08 5008 SLP189 T11441161 =
2017-11-18 00:00 METAR CWPK 180000Z AUTO 31002KT M13/M14 RMK AO1 2PAST HR SOG 08 8002 SLP187
                 P0001 T11271140 50002 =
2017-11-17 23:00 METAR CWPK 172300Z AUTO 31003KT M12/M13 RMK AO1 SOG 08 0002 SLP192 T11181133 =
2017-11-17 22:00 METAR CWPK 172200Z AUTO 29003KT M11/M12 RMK AO1 SOG 08 3004 SLP194 T11091115 =
2017-11-17 21:00 METAR CWPK 172100Z AUTO 29004KT M09/M12 RMK AO1 SOG 08 0000 SLP186 T10921116 =
2017-11-17 20:00 METAR CWPK 172000Z AUTO 29007KT M09/M11 RMK AO1 SOG 08 6003 SLP187 T10861112 =
2017-11-17 19:00 METAR CWPK 171900Z AUTO 29007KT M09/M11 RMK AO1 SOG 08 5003 SLP188 T10871113 =
2017-11-17 18:00 METAR CWPK 171800Z AUTO 28005KT M08/M11 RMK AO1 SOG 08 8010 SLP184 T10811110 =
2017-11-17 17:00 METAR CWPK 171700Z AUTO 29007KT M09/M12 RMK AO1 SOG 08 8005 SLP190 T10901120 =
2017-11-17 16:00 METAR CWPK 171600Z AUTO 32006G15KT M09/M12 RMK AO1 SOG 08 8003 SLP190 T10901116
                 =
2017-11-17 15:00 METAR CWPK 171500Z AUTO 29006KT M09/M11 RMK AO1 SOG 09 1007 SLP194 T10941114 =
2017-11-17 14:00 METAR CWPK 171400Z AUTO 33006KT M10/M12 RMK AO1 SOG 09 1015 SLP194 T10971116 =
2017-11-17 13:00 METAR CWPK 171300Z AUTO 31009G19KT M10/M12 RMK AO1 SOG 08 2020 PK WND 31019/1252
                 SLP191 T10981116 =
2017-11-17 12:00 METAR CWPK 171200Z AUTO 30008G15KT M09/M11 RMK AO1 2PAST HR SOG 08 3021 SLP184
                 P0001 T10941113 50004 =

Support USWX by starting your Amazon purchase here.